New Hartford, Connecticut
Current Conditions -  °F | °C
As of 2:51 PM on Sunday 25 Jan 2015 (Local Time) from KBDL Reporting Station
Scattered Clouds Scattered Clouds  
Wind Chill: 22°   Ceiling: Unl
Heat Index: 33°   Visibility: 10mi
Dew Point:   Wind: 17mph
Humidity: 35%   Direction: 310°NW
Pressure: 29.78"   Gusts: NA
Location:  41.88°N, 72.98°W
Report Text: KBDL 251951Z 31015KT 10SM SCT250 01/M13 A2978 RMK AO2 PK WND 29027/1854 SLP085 T00061133 $
Loading
Personal Weather Stations






























Interactive Weather Map New forecast layout! Learn more

10-Day Weather Forecast

Advertisements
Track Severe Weather on mobile